Time;durP1;ratioP1;P1;durP2;ratioP2;P2;SDS_P1;SDS_P2;PMS_P1;PMS_P2;Temp;Humidity;BMP_temperature;BMP_pressure;BME280_temperature;BME280_humidity;BME280_pressure;Samples;Min_cycle;Max_cycle;Signal;HPM_P1;HPM_P2
2022/08/25 00:01:38;;;;;;;3.78;2.17;;;;;;;17.94;82.29;100533.19;5015914;28;20487;-71
2022/08/25 00:04:07;;;;;;;3.00;2.20;;;;;;;17.92;82.53;100540.97;4986849;28;20116;-72
2022/08/25 00:06:32;;;;;;;3.33;2.50;;;;;;;17.87;83.08;100533.59;4991228;28;20475;-72
2022/08/25 00:08:58;;;;;;;3.67;2.70;;;;;;;17.84;83.24;100528.66;5009717;28;20061;-72
2022/08/25 00:11:27;;;;;;;4.43;3.25;;;;;;;17.85;82.72;100535.84;5010361;28;20125;-71
2022/08/25 00:13:57;;;;;;;4.05;2.97;;;;;;;17.85;83.46;100538.59;5008584;28;20032;-71
2022/08/25 00:16:23;;;;;;;4.13;2.80;;;;;;;17.84;83.15;100533.38;4996582;28;20034;-72
2022/08/25 00:18:55;;;;;;;3.47;2.83;;;;;;;17.86;83.93;100533.88;5011772;28;20026;-74
2022/08/25 00:21:22;;;;;;;4.03;2.70;;;;;;;17.85;83.74;100524.78;5005060;28;20042;-72
2022/08/25 00:23:48;;;;;;;4.75;3.00;;;;;;;17.85;83.91;100512.91;5000388;28;20077;-72
2022/08/25 00:26:15;;;;;;;4.20;3.30;;;;;;;17.88;83.98;100515.84;4992118;28;20448;-72
2022/08/25 00:28:42;;;;;;;7.10;4.38;;;;;;;17.91;83.97;100500.59;5013690;28;20022;-72
2022/08/25 00:31:12;;;;;;;5.00;3.72;;;;;;;17.87;84.40;100500.41;5009957;28;20103;-72
2022/08/25 00:33:37;;;;;;;8.23;4.47;;;;;;;17.94;84.82;100513.81;5010329;28;20033;-69
2022/08/25 00:36:03;;;;;;;6.60;4.90;;;;;;;17.95;85.19;100513.50;5009294;28;20025;-71
2022/08/25 00:38:28;;;;;;;6.50;4.78;;;;;;;18.08;84.54;100522.06;4991913;28;20080;-73
2022/08/25 00:41:06;;;;;;;7.78;5.55;;;;;;;18.12;85.15;100525.81;5014816;28;20078;-72
2022/08/25 00:43:41;;;;;;;7.90;5.13;;;;;;;18.17;85.09;100514.63;5015541;28;20488;-70
2022/08/25 00:46:16;;;;;;;7.55;5.20;;;;;;;18.18;85.51;100510.75;5009968;28;20452;-74
2022/08/25 00:48:44;;;;;;;5.28;4.05;;;;;;;18.23;85.33;100501.50;5009604;28;20132;-74
2022/08/25 00:51:15;;;;;;;6.55;5.15;;;;;;;18.31;84.37;100520.91;5012996;28;21450;-74
2022/08/25 00:53:42;;;;;;;9.63;6.05;;;;;;;18.37;84.95;100534.63;4995614;28;20038;-75
2022/08/25 00:56:08;;;;;;;5.63;5.03;;;;;;;18.39;84.81;100526.81;5008178;28;20483;-75
2022/08/25 00:58:35;;;;;;;7.50;6.00;;;;;;;18.41;85.18;100525.38;5009388;28;20101;-74
2022/08/25 01:01:00;;;;;;;6.40;4.70;;;;;;;18.46;85.12;100527.19;5021666;28;20542;-73
2022/08/25 01:03:28;;;;;;;6.43;4.50;;;;;;;18.52;84.57;100531.47;5006897;28;20163;-71
2022/08/25 01:05:54;;;;;;;7.10;5.05;;;;;;;18.54;84.61;100534.72;5012666;28;20105;-71
2022/08/25 01:08:26;;;;;;;9.35;6.35;;;;;;;18.56;85.06;100537.16;5015323;28;20040;-71
2022/08/25 01:10:52;;;;;;;6.70;5.13;;;;;;;18.53;84.75;100544.19;4993802;28;20049;-70
2022/08/25 01:13:46;;;;;;;6.72;5.28;;;;;;;18.48;84.95;100536.00;4993762;28;20029;-71
2022/08/25 01:16:13;;;;;;;6.22;4.47;;;;;;;18.55;84.97;100541.91;5009728;28;20042;-72
2022/08/25 01:18:55;;;;;;;8.15;5.70;;;;;;;18.53;85.05;100541.41;4993692;28;20045;-72
2022/08/25 01:21:23;;;;;;;7.70;5.68;;;;;;;18.52;85.14;100547.25;5011462;28;20025;-71
2022/08/25 01:23:49;;;;;;;9.30;5.85;;;;;;;18.52;84.69;100548.06;5016662;28;20032;-72
2022/08/25 01:26:22;;;;;;;8.60;5.10;;;;;;;18.49;84.84;100537.63;5016641;28;20491;-71
2022/08/25 01:31:35;;;;;;;8.70;5.78;;;;;;;18.58;84.65;100530.19;5011869;28;20506;-71
2022/08/25 01:34:02;;;;;;;6.47;4.60;;;;;;;18.55;84.51;100539.13;4993587;28;20026;-70
2022/08/25 01:36:28;;;;;;;8.98;5.38;;;;;;;18.60;84.68;100532.63;5012133;28;20026;-72
2022/08/25 01:38:55;;;;;;;5.55;4.15;;;;;;;18.68;84.30;100531.88;4992731;28;20025;-71
2022/08/25 01:41:38;;;;;;;7.50;6.63;;;;;;;18.75;84.27;100517.56;5008923;28;20099;-71
2022/08/25 01:44:07;;;;;;;7.67;6.53;;;;;;;18.71;84.05;100506.31;5011200;28;20218;-70
2022/08/25 01:46:33;;;;;;;9.75;5.75;;;;;;;18.73;83.79;100508.75;4992999;28;20038;-72
2022/08/25 01:49:00;;;;;;;8.75;5.82;;;;;;;18.69;83.65;100503.03;5017193;28;20041;-71
2022/08/25 01:51:29;;;;;;;6.13;4.82;;;;;;;18.71;83.95;100488.88;5010231;28;20506;-71
2022/08/25 01:53:54;;;;;;;7.55;5.32;;;;;;;18.83;84.00;100497.38;5009486;28;20033;-71
2022/08/25 01:56:20;;;;;;;9.15;5.70;;;;;;;18.89;83.37;100495.31;5012361;28;20073;-70
2022/08/25 01:58:47;;;;;;;7.22;5.57;;;;;;;19.01;82.95;100488.03;4976812;28;20100;-73
2022/08/25 02:01:17;;;;;;;4.72;3.53;;;;;;;19.06;82.80;100489.84;5013562;28;20109;-71
2022/08/25 02:03:45;;;;;;;6.25;4.60;;;;;;;19.14;82.60;100488.22;5010425;28;20109;-72
2022/08/25 02:06:13;;;;;;;4.93;3.58;;;;;;;19.23;82.26;100478.00;4992991;28;20026;-71
2022/08/25 02:08:39;;;;;;;5.32;3.53;;;;;;;19.31;81.65;100465.28;5008583;28;20032;-72
2022/08/25 02:11:05;;;;;;;4.30;3.33;;;;;;;19.44;81.11;100460.72;5012849;28;20050;-71
2022/08/25 02:13:30;;;;;;;6.95;5.10;;;;;;;19.50;81.06;100453.88;5006760;28;20137;-71
2022/08/25 02:15:58;;;;;;;6.00;4.68;;;;;;;19.56;80.91;100457.31;4977634;28;20025;-71
2022/08/25 02:18:24;;;;;;;5.93;3.63;;;;;;;19.54;80.54;100463.19;4985249;28;20046;-71
2022/08/25 02:20:50;;;;;;;5.43;4.30;;;;;;;19.48;80.65;100478.34;4987293;28;20068;-73
2022/08/25 02:23:16;;;;;;;6.40;4.47;;;;;;;19.35;80.87;100475.38;5012502;28;20046;-74
2022/08/25 02:25:43;;;;;;;3.45;2.67;;;;;;;19.39;81.29;100474.72;4975666;28;20046;-73
2022/08/25 02:28:08;;;;;;;4.65;3.50;;;;;;;19.33;81.50;100483.22;5009041;28;20021;-73
2022/08/25 02:30:36;;;;;;;6.25;3.53;;;;;;;19.23;81.15;100483.53;4993077;28;20033;-73
2022/08/25 02:33:02;;;;;;;4.28;3.50;;;;;;;19.14;81.52;100463.28;5010853;28;20076;-74
2022/08/25 02:35:28;;;;;;;2.95;2.55;;;;;;;19.06;81.88;100451.03;5009921;28;20021;-75
2022/08/25 02:37:54;;;;;;;5.30;3.92;;;;;;;19.04;81.73;100446.94;4987672;28;20029;-73
2022/08/25 02:40:20;;;;;;;5.75;4.63;;;;;;;19.07;81.57;100457.38;5009477;28;20633;-73
2022/08/25 02:42:50;;;;;;;2.90;2.53;;;;;;;19.08;81.74;100447.94;4998525;28;20025;-73
2022/08/25 02:45:16;;;;;;;3.60;3.20;;;;;;;19.14;81.47;100441.09;4997251;28;20436;-71
2022/08/25 02:47:41;;;;;;;4.97;4.07;;;;;;;19.21;81.51;100437.88;4982416;28;20029;-70
2022/08/25 02:50:08;;;;;;;7.40;5.60;;;;;;;19.26;81.06;100438.53;5013744;28;20569;-73
2022/08/25 02:52:34;;;;;;;8.75;5.35;;;;;;;19.12;80.89;100435.06;4993356;28;20599;-72
2022/08/25 02:55:04;;;;;;;8.73;5.60;;;;;;;18.95;82.17;100433.91;5009381;28;20034;-73
2022/08/25 02:57:30;;;;;;;5.07;4.43;;;;;;;18.90;82.39;100450.69;5013219;28;20026;-72
2022/08/25 02:59:57;;;;;;;8.70;5.80;;;;;;;18.79;82.19;100435.44;4991284;28;20030;-74
2022/08/25 03:02:24;;;;;;;5.45;4.15;;;;;;;18.78;82.89;100440.19;5015576;28;20037;-74
2022/08/25 03:04:50;;;;;;;7.45;4.50;;;;;;;18.78;82.71;100431.88;5017356;28;20415;-71
2022/08/25 03:07:17;;;;;;;5.75;4.68;;;;;;;18.84;82.71;100427.81;4998251;28;20032;-73
2022/08/25 03:09:43;;;;;;;4.88;4.15;;;;;;;18.95;82.18;100427.53;5021510;28;20041;-73
2022/08/25 03:12:11;;;;;;;7.13;5.00;;;;;;;18.98;82.26;100421.34;5007270;28;20038;-74
2022/08/25 03:14:38;;;;;;;5.13;3.83;;;;;;;19.06;81.71;100434.41;4996037;28;20038;-73
2022/08/25 03:17:07;;;;;;;5.50;4.22;;;;;;;19.10;81.69;100413.22;4994720;28;20073;-74
2022/08/25 03:19:33;;;;;;;5.30;4.20;;;;;;;19.15;81.43;100413.06;4994902;28;20109;-73
2022/08/25 03:21:59;;;;;;;6.25;4.47;;;;;;;19.09;81.47;100419.09;4981732;28;20037;-74
2022/08/25 03:24:27;;;;;;;4.20;3.80;;;;;;;18.97;81.59;100415.00;4977983;28;20038;-71
2022/08/25 03:26:54;;;;;;;5.43;3.75;;;;;;;19.11;81.44;100433.44;4994952;28;20030;-71
2022/08/25 03:29:27;;;;;;;6.60;4.50;;;;;;;19.06;80.93;100416.97;4971374;28;20030;-72
2022/08/25 03:31:54;;;;;;;3.87;3.37;;;;;;;19.12;81.28;100412.91;4993645;28;20044;-72
2022/08/25 03:34:21;;;;;;;4.53;3.80;;;;;;;19.11;81.13;100419.59;4991980;28;20109;-73
2022/08/25 03:36:49;;;;;;;6.95;5.15;;;;;;;19.00;81.28;100405.22;4996253;28;20032;-72
2022/08/25 03:39:15;;;;;;;4.88;4.15;;;;;;;18.95;81.38;100425.59;4983792;28;20387;-72
2022/08/25 03:41:41;;;;;;;5.95;4.57;;;;;;;18.81;81.62;100422.09;4978163;28;20033;-72
2022/08/25 03:44:08;;;;;;;4.28;3.47;;;;;;;18.80;82.18;100431.53;4961598;28;20112;-74
2022/08/25 03:46:41;;;;;;;4.97;4.18;;;;;;;18.79;82.37;100440.97;4998549;28;20417;-74
2022/08/25 03:49:14;;;;;;;7.72;4.25;;;;;;;18.70;82.47;100426.31;4995192;28;20038;-73
2022/08/25 03:51:48;;;;;;;6.75;4.75;;;;;;;18.83;81.89;100422.59;4973480;28;20365;-71
2022/08/25 03:54:20;;;;;;;3.30;3.00;;;;;;;18.86;81.86;100429.44;4993473;28;20041;-72
2022/08/25 03:56:45;;;;;;;6.07;3.78;;;;;;;18.77;81.61;100419.16;4972674;28;20394;-73
2022/08/25 03:59:11;;;;;;;3.67;3.08;;;;;;;18.83;81.79;100436.44;5000320;28;20037;-70
2022/08/25 04:01:40;;;;;;;3.08;2.63;;;;;;;18.74;81.80;100432.84;4973972;28;20520;-72
2022/08/25 04:04:08;;;;;;;5.70;3.80;;;;;;;18.85;81.43;100453.53;4971718;28;20030;-73
2022/08/25 04:06:34;;;;;;;5.18;3.53;;;;;;;18.74;81.36;100455.00;4975909;28;20038;-73
2022/08/25 04:09:00;;;;;;;3.80;2.47;;;;;;;18.63;81.91;100449.75;4991618;28;20085;-72
2022/08/25 04:11:26;;;;;;;3.03;2.22;;;;;;;18.61;82.11;100446.47;5006702;28;20389;-70
2022/08/25 04:13:55;;;;;;;3.03;2.60;;;;;;;18.57;82.13;100444.66;5013620;28;20511;-72
2022/08/25 04:16:23;;;;;;;3.92;2.97;;;;;;;18.53;82.43;100444.50;4993288;28;20061;-72
2022/08/25 04:18:50;;;;;;;3.35;2.42;;;;;;;18.51;82.62;100445.94;5009992;28;20132;-70
2022/08/25 04:21:17;;;;;;;3.03;2.72;;;;;;;18.55;82.49;100433.91;5010897;28;20049;-72
2022/08/25 04:23:44;;;;;;;2.88;2.40;;;;;;;18.61;82.11;100440.94;5011526;28;20064;-72
2022/08/25 04:26:14;;;;;;;2.65;2.40;;;;;;;18.55;81.90;100439.44;4994908;28;20709;-70
2022/08/25 04:28:40;;;;;;;3.65;2.60;;;;;;;18.57;81.97;100439.94;5009824;28;20065;-72
2022/08/25 04:31:11;;;;;;;5.32;3.45;;;;;;;18.66;81.58;100446.34;5011332;28;20038;-70
2022/08/25 04:33:37;;;;;;;3.63;3.08;;;;;;;18.64;81.64;100453.31;5011770;28;20036;-71
2022/08/25 04:36:05;;;;;;;4.40;3.03;;;;;;;18.60;81.79;100455.94;4994953;28;20409;-71
2022/08/25 04:38:31;;;;;;;4.93;3.35;;;;;;;18.54;81.90;100451.66;5001400;28;20036;-71
2022/08/25 04:41:02;;;;;;;3.67;2.90;;;;;;;18.45;82.39;100459.91;5007297;28;20034;-74
2022/08/25 04:43:28;;;;;;;3.67;2.38;;;;;;;18.46;82.78;100478.16;5019828;28;20026;-71
2022/08/25 04:45:54;;;;;;;2.92;2.38;;;;;;;18.53;82.88;100476.88;5016160;28;20029;-74
2022/08/25 04:48:20;;;;;;;8.05;3.00;;;;;;;18.61;82.15;100463.06;4999053;28;20046;-71
2022/08/25 04:50:46;;;;;;;3.15;2.75;;;;;;;18.62;81.65;100464.72;5012180;28;20085;-72
2022/08/25 04:53:12;;;;;;;3.53;3.05;;;;;;;18.75;81.87;100467.69;5010021;28;20025;-73
2022/08/25 04:55:42;;;;;;;3.25;2.53;;;;;;;18.80;81.74;100471.13;5003563;28;20021;-74
2022/08/25 04:58:08;;;;;;;2.65;2.08;;;;;;;18.92;81.08;100467.78;5011572;28;20025;-71
2022/08/25 05:00:35;;;;;;;3.25;2.60;;;;;;;18.98;80.54;100477.59;5014611;28;20030;-72
2022/08/25 05:03:01;;;;;;;2.92;2.33;;;;;;;19.02;80.75;100484.09;5011890;28;20498;-71
2022/08/25 05:05:27;;;;;;;2.08;1.88;;;;;;;19.04;80.46;100477.44;5012987;28;20029;-72
2022/08/25 05:07:53;;;;;;;1.67;1.42;;;;;;;19.08;80.75;100472.88;5016713;28;20165;-71
2022/08/25 05:10:19;;;;;;;3.28;2.33;;;;;;;19.08;80.33;100475.66;5010281;28;20044;-70
2022/08/25 05:12:44;;;;;;;2.88;1.80;;;;;;;19.11;80.02;100486.09;4994942;28;20551;-74
2022/08/25 05:17:57;;;;;;;3.22;2.45;;;;;;;19.00;79.93;100474.50;5020255;28;20029;-72
2022/08/25 05:20:23;;;;;;;2.85;2.55;;;;;;;19.08;80.21;100486.75;5011950;28;20033;-71
2022/08/25 05:22:48;;;;;;;2.05;1.85;;;;;;;19.12;79.95;100493.28;5004141;28;20021;-74
2022/08/25 05:25:14;;;;;;;2.63;2.15;;;;;;;19.09;80.07;100496.69;5015077;28;20361;-73
2022/08/25 05:27:41;;;;;;;3.55;2.28;;;;;;;19.09;80.00;100493.94;5006074;28;20025;-73
2022/08/25 05:30:09;;;;;;;1.85;1.65;;;;;;;19.13;79.94;100497.69;5019632;28;20018;-72
2022/08/25 05:32:34;;;;;;;2.30;2.03;;;;;;;19.15;80.04;100498.97;5013866;28;20444;-71
2022/08/25 05:35:00;;;;;;;2.63;2.22;;;;;;;19.11;79.87;100502.72;4999132;28;20072;-72
2022/08/25 05:37:25;;;;;;;1.58;1.48;;;;;;;19.10;80.36;100498.31;4984742;28;20049;-71
2022/08/25 05:39:51;;;;;;;2.42;2.00;;;;;;;19.09;80.24;100499.47;5022527;28;20376;-73
2022/08/25 05:42:16;;;;;;;2.47;2.00;;;;;;;19.10;80.04;100490.00;4999483;28;20021;-73
2022/08/25 05:44:41;;;;;;;2.35;1.88;;;;;;;19.14;80.14;100499.31;5016327;28;20037;-72
2022/08/25 05:47:07;;;;;;;5.68;2.20;;;;;;;19.15;80.53;100495.41;4993168;28;20038;-73
2022/08/25 05:49:32;;;;;;;2.65;2.15;;;;;;;19.14;80.24;100491.00;5011156;28;20121;-73
2022/08/25 05:51:58;;;;;;;2.58;2.20;;;;;;;19.14;80.47;100496.53;4990075;28;20072;-73
2022/08/25 05:54:24;;;;;;;2.30;2.10;;;;;;;19.08;80.22;100481.19;4990840;28;20038;-74
2022/08/25 05:56:52;;;;;;;2.88;2.50;;;;;;;19.09;80.19;100482.84;5013722;28;20026;-74
2022/08/25 05:59:17;;;;;;;2.03;1.83;;;;;;;19.14;80.48;100482.69;5015353;28;20014;-74
2022/08/25 06:04:27;;;;;;;2.00;1.80;;;;;;;19.23;80.10;100489.06;5013519;28;20088;-73
2022/08/25 06:06:53;;;;;;;2.95;1.90;;;;;;;19.28;80.05;100497.22;4988937;28;20030;-73
2022/08/25 06:09:23;;;;;;;2.28;2.00;;;;;;;19.30;80.33;100494.13;5011773;28;20038;-73
2022/08/25 06:11:49;;;;;;;3.75;2.42;;;;;;;19.33;80.06;100505.41;5008594;28;20057;-73
2022/08/25 06:14:14;;;;;;;3.25;2.95;;;;;;;19.35;79.88;100497.56;4957666;28;20026;-74
2022/08/25 06:16:40;;;;;;;5.40;3.30;;;;;;;19.36;79.38;100492.81;4987603;28;20624;-76
2022/08/25 06:19:08;;;;;;;4.40;3.22;;;;;;;19.31;79.07;100501.31;4983417;28;20065;-76
2022/08/25 06:21:34;;;;;;;4.22;3.45;;;;;;;19.26;79.11;100504.22;4976414;28;20026;-75
2022/08/25 06:23:59;;;;;;;3.42;2.42;;;;;;;19.19;79.20;100504.72;4962693;28;20640;-76
2022/08/25 06:26:25;;;;;;;2.80;2.17;;;;;;;19.14;79.31;100499.31;4976513;28;20041;-76
2022/08/25 06:28:51;;;;;;;5.95;2.80;;;;;;;19.11;79.33;100502.72;5002633;28;20030;-76
2022/08/25 06:31:21;;;;;;;2.60;2.33;;;;;;;19.09;79.21;100491.97;4963238;28;20058;-75
2022/08/25 06:33:46;;;;;;;3.78;2.58;;;;;;;19.09;78.87;100489.19;4999675;28;20161;-75
2022/08/25 06:36:12;;;;;;;7.15;2.45;;;;;;;19.09;79.01;100488.38;4999421;28;20061;-76
2022/08/25 06:38:37;;;;;;;4.32;2.58;;;;;;;19.08;78.63;100486.75;5000240;28;20022;-74
2022/08/25 06:41:05;;;;;;;2.72;2.20;;;;;;;19.04;78.45;100496.84;4964720;28;20030;-74
2022/08/25 06:43:32;;;;;;;4.00;2.58;;;;;;;19.04;78.14;100507.91;4996886;28;20094;-75
2022/08/25 06:46:16;;;;;;;3.63;2.50;;;;;;;18.97;78.12;100509.22;5005365;28;20030;-74
2022/08/25 06:48:45;;;;;;;2.92;1.90;;;;;;;18.93;78.03;100513.75;5003776;28;20109;-74
2022/08/25 06:51:13;;;;;;;3.22;2.13;;;;;;;18.94;77.80;100522.88;4963236;28;20023;-75
2022/08/25 06:53:39;;;;;;;3.78;1.92;;;;;;;18.90;77.99;100519.94;4995638;28;20030;-73
2022/08/25 06:56:04;;;;;;;3.22;2.10;;;;;;;18.90;77.67;100519.94;4978798;28;20037;-75
2022/08/25 06:58:31;;;;;;;2.33;1.90;;;;;;;18.90;77.51;100525.47;4978328;28;20026;-77
2022/08/25 07:01:09;;;;;;;4.50;2.70;;;;;;;18.88;77.28;100527.75;4998015;28;20034;-76
2022/08/25 07:03:35;;;;;;;2.95;1.92;;;;;;;18.91;77.35;100535.44;4995241;28;20035;-76
2022/08/25 07:06:00;;;;;;;3.85;2.33;;;;;;;18.92;77.67;100537.03;4994265;28;20495;-78
2022/08/25 07:08:26;;;;;;;3.35;2.60;;;;;;;18.93;77.20;100530.38;4967721;28;20105;-76
2022/08/25 07:10:51;;;;;;;6.80;3.55;;;;;;;18.79;77.39;100513.84;4982486;28;20516;-76
2022/08/25 07:13:17;;;;;;;4.78;3.50;;;;;;;18.83;77.69;100536.97;5014033;28;20033;-75
2022/08/25 07:15:42;;;;;;;2.97;2.22;;;;;;;18.84;77.47;100544.16;4992112;28;20037;-77
2022/08/25 07:18:10;;;;;;;4.20;2.65;;;;;;;18.83;77.67;100538.94;5001265;28;20037;-76
2022/08/25 07:20:37;;;;;;;3.10;2.40;;;;;;;18.83;77.29;100536.16;5014609;28;20487;-76
2022/08/25 07:23:13;;;;;;;;;;;;;;;;;;;;;
2022/08/25 07:25:42;;;;;;;3.40;1.60;;;;;;;18.86;77.65;100523.63;4992868;28;20018;-76
2022/08/25 07:31:21;;;;;;;1.60;1.38;;;;;;;18.76;77.81;100497.03;4991116;28;20034;-76
2022/08/25 07:36:51;;;;;;;2.22;1.95;;;;;;;18.74;77.63;100455.00;5014014;28;20032;-74
2022/08/25 07:39:45;;;;;;;3.30;1.85;;;;;;;18.87;77.69;100495.66;5001592;28;20021;-75
2022/08/25 07:42:20;;;;;;;2.00;1.77;;;;;;;18.73;77.58;100503.22;5008045;28;20506;-75
2022/08/25 07:44:46;;;;;;;3.13;2.00;;;;;;;18.69;77.72;100516.91;5014212;28;20080;-75
2022/08/25 07:47:18;;;;;;;1.92;1.50;;;;;;;18.71;77.76;100516.56;4988199;28;20042;-77
2022/08/25 07:49:46;;;;;;;1.85;1.13;;;;;;;18.73;77.64;100514.28;5001901;28;20022;-75
2022/08/25 07:52:16;;;;;;;1.52;1.42;;;;;;;18.69;78.10;100491.13;4980880;28;20033;-77
2022/08/25 07:54:42;;;;;;;1.10;1.00;;;;;;;18.66;78.25;100476.81;5005946;28;20068;-75
2022/08/25 07:57:08;;;;;;;1.65;1.30;;;;;;;18.72;78.30;100482.19;4994492;28;20121;-75
2022/08/25 07:59:40;;;;;;;1.65;1.30;;;;;;;18.75;78.40;100503.69;5020075;28;20033;-75
2022/08/25 08:02:09;;;;;;;1.58;1.35;;;;;;;18.71;77.89;100508.28;5002749;28;20020;-76
2022/08/25 08:04:45;;;;;;;1.65;1.05;;;;;;;18.71;77.72;100499.97;5000430;28;20029;-75
2022/08/25 08:07:31;;;;;;;;;;;;;;;;;;;;;
2022/08/25 08:10:10;;;;;;;;;;;;;;;;;;;;;
2022/08/25 08:13:30;;;;;;;;;;;;;;;;;;;;;
2022/08/25 08:16:05;;;;;;;0.52;0.52;;;;;;;18.57;77.97;100528.53;4976560;28;20054;-74
2022/08/25 08:19:08;;;;;;;;;;;;;;;;;;;;;
2022/08/25 08:22:15;;;;;;;;;;;;;;;;;;;;;
2022/08/25 08:24:58;;;;;;;0.80;0.63;;;;;;;18.45;78.09;100531.09;4996047;28;20101;-75
2022/08/25 08:30:59;;;;;;;0.70;0.65;;;;;;;18.52;78.06;100552.81;4989428;28;20026;-75
2022/08/25 08:33:43;;;;;;;1.33;0.70;;;;;;;18.43;78.61;100577.66;4974667;28;20038;-76
2022/08/25 08:36:27;;;;;;;;;;;;;;;;;;;;;
2022/08/25 08:57:05;;;;;;;0.68;0.68;;;;;;;17.92;81.00;100552.84;4860428;29;20116;-72
2022/08/25 09:00:57;;;;;;;;;;;;;;;;;;;;;
2022/08/25 09:04:27;;;;;;;1.40;0.90;;;;;;;18.22;79.74;100519.22;4821009;29;20417;-72
2022/08/25 09:06:54;;;;;;;1.90;1.42;;;;;;;18.43;79.65;100536.13;4837935;29;20047;-74
2022/08/25 09:09:27;;;;;;;1.48;1.15;;;;;;;18.65;79.31;100532.50;4900526;29;20028;-73
2022/08/25 09:12:35;;;;;;;1.60;1.20;;;;;;;19.09;78.22;100527.19;4973747;28;20515;-74
2022/08/25 09:16:53;;;;;;;2.33;1.10;;;;;;;19.43;76.88;100525.63;4989870;28;20037;-74
2022/08/25 09:18:43;;;;;;;1.83;1.40;;;;;;;19.59;76.15;100520.44;4981519;28;20053;-74
2022/08/25 09:21:33;;;;;;;1.60;1.10;;;;;;;19.59;76.18;100515.69;4993930;28;20034;-75
2022/08/25 09:24:16;;;;;;;5.18;1.83;;;;;;;19.40;75.93;100521.53;4992757;28;20022;-74
2022/08/25 09:27:04;;;;;;;3.20;1.40;;;;;;;19.38;76.35;100523.84;4986741;28;20039;-73
2022/08/25 09:30:16;;;;;;;2.80;1.75;;;;;;;19.42;76.53;100524.00;4981144;28;20050;-72
2022/08/25 09:33:01;;;;;;;1.75;1.10;;;;;;;19.58;76.17;100527.94;4957369;28;20050;-75
2022/08/25 10:38:09;;;;;;;1.75;1.50;;;;;;;21.65;66.84;100578.13;4930552;28;20051;-76
2022/08/25 10:41:09;;;;;;;1.67;1.35;;;;;;;21.58;67.05;100583.41;4930020;29;20043;-77
2022/08/25 10:43:53;;;;;;;1.30;1.20;;;;;;;21.58;67.57;100583.41;4909589;29;20028;-76
2022/08/25 10:46:30;;;;;;;4.18;1.95;;;;;;;21.52;67.03;100582.78;4907876;29;20031;-75
2022/08/25 10:49:02;;;;;;;2.95;2.00;;;;;;;21.42;67.32;100586.75;4941405;29;20043;-75
2022/08/25 10:51:55;;;;;;;5.93;2.25;;;;;;;21.18;67.97;100592.13;4911983;29;20070;-77
2022/08/25 10:54:43;;;;;;;5.07;2.80;;;;;;;21.00;68.62;100586.63;4920777;29;20028;-77
2022/08/25 10:57:27;;;;;;;3.67;2.88;;;;;;;20.68;69.32;100588.84;4926791;29;20543;-77
2022/08/25 10:59:52;;;;;;;4.15;3.25;;;;;;;20.40;69.73;100597.53;4922678;29;20027;-77
2022/08/25 11:02:43;;;;;;;4.63;3.20;;;;;;;20.23;70.72;100591.97;4914119;29;20031;-76
2022/08/25 11:05:18;;;;;;;3.92;2.75;;;;;;;20.08;71.54;100600.78;4905368;29;20030;-77
2022/08/25 11:07:48;;;;;;;4.70;3.03;;;;;;;19.93;71.75;100589.06;4940140;29;20028;-77
2022/08/25 11:10:33;;;;;;;5.65;3.67;;;;;;;19.79;72.13;100593.94;4934645;29;20071;-76
2022/08/25 11:13:05;;;;;;;4.63;3.33;;;;;;;19.77;72.59;100598.94;4941973;29;20034;-76
2022/08/25 11:15:39;;;;;;;6.63;3.85;;;;;;;19.83;72.22;100594.88;4936852;29;20482;-77
2022/08/25 11:18:12;;;;;;;4.50;3.25;;;;;;;19.82;72.40;100594.09;4921943;29;20062;-75
2022/08/25 11:21:00;;;;;;;4.00;2.83;;;;;;;20.03;71.97;100591.50;4918438;29;20118;-75
2022/08/25 11:23:34;;;;;;;4.53;3.92;;;;;;;20.17;71.13;100598.84;4922192;29;20067;-76
2022/08/25 11:26:12;;;;;;;8.75;4.25;;;;;;;20.04;70.61;100590.34;4937404;29;20032;-79
2022/08/25 11:32:17;;;;;;;;;;;;;;;;;;;;;
2022/08/25 11:38:29;;;;;;;;;;;;;;;;;;;;;
2022/08/25 11:47:18;;;;;;;;;;;;;;;;;;;;;
2022/08/25 11:50:30;;;;;;;5.30;4.13;;;;;;;19.78;70.95;100617.22;4920607;29;20028;-80
2022/08/25 11:53:10;;;;;;;6.57;4.28;;;;;;;19.73;70.82;100614.59;4899300;29;20024;-78
2022/08/25 11:56:17;;;;;;;5.88;4.63;;;;;;;19.74;70.96;100619.00;4913978;29;20147;-75
2022/08/25 11:59:05;;;;;;;4.70;4.20;;;;;;;19.71;70.89;100626.84;4917392;29;20032;-78
2022/08/25 12:01:41;;;;;;;6.18;4.68;;;;;;;19.83;70.48;100620.69;4877026;29;20032;-79
2022/08/25 12:04:50;;;;;;;;;;;;;;;;;;;;;
2022/08/25 12:07:50;;;;;;;5.45;4.20;;;;;;;20.09;70.55;100632.97;4921897;29;20023;-77
2022/08/25 12:10:22;;;;;;;4.97;3.60;;;;;;;20.36;70.46;100634.63;4912851;29;20658;-77
2022/08/25 12:13:33;;;;;;;;;;;;;;;;;;;;;
2022/08/25 12:16:02;;;;;;;6.97;4.78;;;;;;;20.63;68.99;100615.94;4849597;29;20042;-78
2022/08/25 12:18:30;;;;;;;5.85;4.65;;;;;;;20.72;68.47;100628.72;4841583;29;20042;-76
2022/08/25 12:21:05;;;;;;;6.53;3.47;;;;;;;20.73;68.37;100613.69;4905024;29;20027;-76
2022/08/25 12:23:43;;;;;;;;;;;;;;;;;;;;;
2022/08/25 12:26:59;;;;;;;4.57;3.50;;;;;;;21.07;67.83;100647.25;4918034;29;20377;-77
2022/08/25 12:29:40;;;;;;;2.78;2.58;;;;;;;21.24;67.71;100646.38;4908828;29;20048;-76
2022/08/25 12:33:05;;;;;;;5.28;3.30;;;;;;;21.52;66.76;100645.97;4890848;29;20710;-76
2022/08/25 12:35:56;;;;;;;4.70;4.20;;;;;;;21.89;65.55;100646.22;4850181;29;20089;-77
2022/08/25 12:38:47;;;;;;;5.90;3.28;;;;;;;22.42;64.57;100647.50;4846036;29;20062;-77
2022/08/25 12:41:26;;;;;;;4.00;3.60;;;;;;;23.08;62.11;100654.22;4891971;29;20028;-75
2022/08/25 12:44:07;;;;;;;4.38;2.97;;;;;;;23.42;61.23;100641.06;4899224;29;20031;-76
2022/08/25 12:46:37;;;;;;;2.78;2.42;;;;;;;23.78;60.38;100664.53;4891257;29;20058;-76
2022/08/25 12:49:34;;;;;;;3.08;2.80;;;;;;;23.93;60.07;100656.63;4916016;29;20080;-76
2022/08/25 12:52:22;;;;;;;3.53;3.05;;;;;;;23.88;59.65;100664.09;4900184;29;20471;-75
2022/08/25 12:55:01;;;;;;;2.92;2.50;;;;;;;23.85;59.71;100667.56;4898845;29;20047;-76
2022/08/25 12:57:41;;;;;;;6.35;2.95;;;;;;;24.13;58.68;100668.81;4892390;29;20035;-77
2022/08/25 13:00:16;;;;;;;2.22;2.03;;;;;;;24.03;58.26;100665.38;4920100;29;20023;-76
2022/08/25 13:02:47;;;;;;;2.42;2.10;;;;;;;23.75;59.21;100664.44;4917821;29;20067;-76
2022/08/25 13:05:13;;;;;;;4.65;2.90;;;;;;;23.26;58.85;100657.69;4918622;29;20123;-76
2022/08/25 13:08:13;;;;;;;2.30;2.10;;;;;;;22.92;59.66;100651.28;4922733;29;20028;-77
2022/08/25 13:10:52;;;;;;;4.90;2.53;;;;;;;23.46;59.15;100653.13;4920351;29;20043;-77
2022/08/25 13:13:35;;;;;;;2.15;1.95;;;;;;;24.27;57.74;100660.88;4913804;29;20402;-76
2022/08/25 13:16:08;;;;;;;3.35;2.60;;;;;;;24.82;55.03;100660.44;4920649;29;20052;-76
2022/08/25 13:18:36;;;;;;;2.83;2.05;;;;;;;25.36;53.85;100661.88;4920865;29;20467;-77
2022/08/25 13:21:12;;;;;;;4.55;1.95;;;;;;;25.43;53.81;100667.66;4904260;29;20123;-76
2022/08/25 13:23:41;;;;;;;4.63;1.95;;;;;;;25.93;52.39;100663.28;4921663;29;20063;-76
2022/08/25 13:26:08;;;;;;;2.60;1.70;;;;;;;27.00;50.11;100663.91;4918776;29;20087;-76
2022/08/25 13:28:40;;;;;;;2.30;1.67;;;;;;;27.39;49.26;100663.00;4903224;29;20036;-77
2022/08/25 13:31:20;;;;;;;1.58;1.48;;;;;;;28.89;46.75;100662.69;4915468;29;20048;-77
2022/08/25 13:33:55;;;;;;;2.30;1.55;;;;;;;29.48;44.29;100664.84;4914582;29;20471;-77
2022/08/25 13:39:18;;;;;;;1.67;1.40;;;;;;;28.52;44.54;100666.28;4934782;29;20034;-76
2022/08/25 13:41:51;;;;;;;1.77;1.25;;;;;;;27.95;45.47;100683.94;4936122;29;20047;-78
2022/08/25 13:44:19;;;;;;;1.27;1.17;;;;;;;27.58;46.02;100680.97;4935269;29;20112;-75
2022/08/25 13:46:46;;;;;;;1.10;0.95;;;;;;;27.72;46.03;100691.63;4917712;29;20082;-76
2022/08/25 13:49:23;;;;;;;1.65;0.80;;;;;;;27.80;45.83;100685.75;4918599;29;20024;-75
2022/08/25 13:51:54;;;;;;;1.70;1.20;;;;;;;28.28;45.30;100682.41;4934087;29;20032;-77
2022/08/25 13:54:33;;;;;;;1.15;1.00;;;;;;;29.99;42.90;100678.13;4926786;29;20035;-76
2022/08/25 13:57:20;;;;;;;0.68;0.65;;;;;;;31.13;40.29;100685.47;4926833;29;20118;-78
2022/08/25 13:59:50;;;;;;;1.35;0.90;;;;;;;29.95;40.94;100677.31;4930695;29;20034;-77
2022/08/25 14:02:46;;;;;;;0.60;0.57;;;;;;;28.72;42.98;100693.06;4927725;29;20019;-76
2022/08/25 14:05:13;;;;;;;3.13;0.50;;;;;;;27.50;44.98;100691.28;4933740;29;20042;-76
2022/08/25 14:07:39;;;;;;;0.80;0.80;;;;;;;26.75;46.33;100693.47;4942757;29;20031;-77